Avoca, Arkansas
Current Conditions -  °F | °C
As of 1:57 AM on Saturday 22 Nov 2014 (Local Time) from KROG Reporting Station
Overcast Overcast  
Wind Chill: 55°   Ceiling: 2800
Heat Index: 55°   Visibility: 10mi
Dew Point: 47°   Wind: 16mph
Humidity: 74%   Direction: 170°S
Pressure: 30.14"   Gusts: NA
Location:  36.4°N, 94.07°W
Report Text: KROG 220757Z AUTO 17014KT 10SM OVC028 13/08 A3014 RMK AO2 SLP203 T01280083 TSNO
Loading
Personal Weather Stations






























Interactive Weather Map New forecast layout! Learn more

10-Day Weather Forecast

Advertisements
Track Severe Weather on mobile